Time;durP1;ratioP1;P1;durP2;ratioP2;P2;SDS_P1;SDS_P2;PMS_P1;PMS_P2;Temp;Humidity;BMP_temperature;BMP_pressure;BME280_temperature;BME280_humidity;BME280_pressure;Samples;Min_cycle;Max_cycle;Signal;HPM_P1;HPM_P2
2021/07/13 00:01:41;;;;;;;3.33;2.03;;;20.10;72.70;;;19.02;70.44;95182.97;4999130;28;20062;-72
2021/07/13 00:04:08;;;;;;;2.70;1.88;;;20.10;72.80;;;19.01;70.46;95186.69;4986974;28;20072;-72
2021/07/13 00:06:33;;;;;;;3.33;1.83;;;20.10;73.10;;;18.99;70.93;95186.94;4979214;28;20564;-72
2021/07/13 00:08:59;;;;;;;2.60;1.98;;;20.10;73.00;;;19.00;70.21;95193.06;4975354;28;20039;-72
2021/07/13 00:11:25;;;;;;;5.57;2.17;;;20.10;72.70;;;18.96;71.20;95179.47;4992347;28;20089;-73
2021/07/13 00:13:52;;;;;;;3.28;2.00;;;20.10;73.10;;;19.00;70.84;95182.41;4990769;28;20030;-72
2021/07/13 00:16:18;;;;;;;4.05;2.10;;;20.00;72.80;;;18.97;70.66;95176.53;4977704;28;20476;-73
2021/07/13 00:18:43;;;;;;;3.95;2.15;;;20.00;73.30;;;18.97;71.45;95186.41;4988139;28;20061;-71
2021/07/13 00:21:09;;;;;;;3.92;2.38;;;19.90;73.80;;;18.96;71.68;95180.28;5001127;28;20475;-72
2021/07/13 00:23:36;;;;;;;3.63;2.97;;;19.90;74.10;;;18.92;72.18;95171.22;5010079;28;20458;-72
2021/07/13 00:26:05;;;;;;;5.35;2.70;;;20.00;74.30;;;18.90;71.61;95168.00;4990988;28;20034;-72
2021/07/13 00:28:32;;;;;;;3.60;2.60;;;19.90;74.30;;;18.88;71.88;95166.69;4976342;28;20515;-72
2021/07/13 00:30:57;;;;;;;4.75;2.67;;;19.90;74.70;;;18.84;71.89;95161.09;4961510;28;20038;-72
2021/07/13 00:33:23;;;;;;;5.13;2.58;;;19.90;74.60;;;18.84;71.42;95142.44;5003170;28;20057;-72
2021/07/13 00:35:49;;;;;;;5.32;2.38;;;19.90;74.20;;;18.85;72.53;95136.03;4982418;28;20061;-72
2021/07/13 00:38:15;;;;;;;3.75;2.15;;;19.90;74.10;;;18.82;71.65;95125.91;4978394;28;20089;-73
2021/07/13 00:40:40;;;;;;;3.58;2.30;;;19.90;74.20;;;18.78;72.39;95124.81;4955325;28;20077;-72
2021/07/13 00:43:06;;;;;;;6.20;2.63;;;19.80;74.50;;;18.76;72.67;95124.28;4966231;28;20038;-72
2021/07/13 00:45:32;;;;;;;2.58;2.15;;;19.80;74.50;;;18.76;71.61;95129.59;5001368;28;20473;-72
2021/07/13 00:47:58;;;;;;;6.07;2.30;;;19.80;74.30;;;18.74;72.21;95113.09;4982641;28;20445;-72
2021/07/13 00:50:25;;;;;;;4.35;2.42;;;19.80;74.50;;;18.73;73.04;95124.81;4990792;28;20038;-72
2021/07/13 00:52:51;;;;;;;4.47;2.25;;;19.80;74.70;;;18.73;72.68;95122.16;4979707;28;20034;-72
2021/07/13 00:55:17;;;;;;;3.92;2.25;;;19.80;74.70;;;18.69;72.58;95121.09;4992761;28;20033;-72
2021/07/13 00:57:43;;;;;;;4.47;2.30;;;19.80;74.70;;;18.69;72.30;95126.41;4984418;28;20057;-72
2021/07/13 01:00:11;;;;;;;5.10;2.80;;;19.70;74.60;;;18.68;73.21;95119.47;5001016;28;20101;-72
2021/07/13 01:02:37;;;;;;;3.22;2.30;;;19.70;74.60;;;18.68;72.13;95124.81;4971467;28;20030;-72
2021/07/13 01:05:17;;;;;;;10.75;2.35;;;19.70;74.40;;;18.68;73.69;95122.16;4988091;23;20429;-71
2021/07/13 01:08:21;;;;;;;2.97;2.22;;;19.70;75.00;;;18.65;73.59;95136.00;4965276;28;20317;-71
2021/07/13 01:11:02;;;;;;;4.22;2.20;;;19.60;75.00;;;18.61;73.72;95129.56;4985743;28;20040;-71
2021/07/13 01:13:42;;;;;;;3.97;2.03;;;19.60;75.40;;;18.58;74.11;95119.44;4989935;28;20026;-71
2021/07/13 01:16:32;;;;;;;3.93;2.10;;;19.60;75.20;;;18.56;73.37;95116.25;4988977;28;20088;-72
2021/07/13 01:19:35;;;;;;;5.30;2.33;;;19.60;75.20;;;18.51;74.52;95114.34;4960487;28;20288;-72
2021/07/13 01:22:16;;;;;;;2.22;2.00;;;19.60;75.20;;;18.52;74.60;95107.16;4989981;28;20106;-72
2021/07/13 01:25:11;;;;;;;2.85;2.33;;;19.60;75.30;;;18.53;74.21;95106.88;4985949;28;20735;-72
2021/07/13 01:27:48;;;;;;;4.30;2.28;;;19.70;75.40;;;18.54;73.71;95107.69;4960362;28;20125;-72
2021/07/13 01:30:20;;;;;;;3.88;2.38;;;19.60;75.70;;;18.52;74.20;95104.50;4986501;28;20367;-72
2021/07/13 01:32:59;;;;;;;3.15;2.10;;;19.60;75.80;;;18.54;74.58;95102.38;4973516;28;20109;-72
2021/07/13 01:35:34;;;;;;;3.17;2.28;;;19.60;75.90;;;18.56;74.38;95105.59;4978541;28;20039;-72
2021/07/13 01:37:59;;;;;;;6.25;2.50;;;19.60;75.90;;;18.56;73.89;95116.25;4963156;28;20136;-72
2021/07/13 01:40:25;;;;;;;4.63;2.60;;;19.70;76.00;;;18.59;74.25;95113.06;4985056;28;20522;-71
2021/07/13 01:42:51;;;;;;;4.45;2.80;;;19.70;75.80;;;18.60;73.54;95114.66;4989232;28;20022;-72
2021/07/13 01:45:17;;;;;;;3.63;2.50;;;19.70;75.90;;;18.58;73.88;95114.91;4983824;28;20030;-72
2021/07/13 01:47:43;;;;;;;3.38;2.50;;;19.70;75.90;;;18.57;74.34;95123.97;4971906;28;20081;-72
2021/07/13 01:50:09;;;;;;;4.00;2.92;;;19.60;75.80;;;18.57;74.36;95123.16;4974570;28;20085;-72
2021/07/13 01:52:36;;;;;;;4.78;2.63;;;19.70;75.70;;;18.58;74.29;95124.78;4945530;28;20577;-72
2021/07/13 01:55:03;;;;;;;4.93;2.65;;;19.70;75.50;;;18.58;73.83;95141.53;4945871;28;20133;-73
2021/07/13 01:57:29;;;;;;;2.58;2.28;;;19.70;75.80;;;18.58;74.68;95143.41;4983145;28;20038;-73
2021/07/13 01:59:55;;;;;;;5.80;2.60;;;19.70;75.80;;;18.58;73.58;95124.78;4982342;28;20762;-72
2021/07/13 02:02:20;;;;;;;4.43;3.03;;;19.60;75.90;;;18.58;74.15;95116.78;4969104;28;20096;-72
2021/07/13 02:04:47;;;;;;;5.13;2.75;;;19.70;75.80;;;18.57;73.43;95112.50;4976722;28;20387;-72
2021/07/13 02:07:12;;;;;;;3.53;2.70;;;19.70;75.90;;;18.58;74.26;95119.44;4979201;28;20037;-71
2021/07/13 02:09:38;;;;;;;6.68;2.90;;;19.60;76.00;;;18.58;74.11;95122.09;4983642;28;20041;-73
2021/07/13 02:12:04;;;;;;;3.90;2.78;;;19.60;76.30;;;18.56;74.72;95111.72;4985289;28;20034;-73
2021/07/13 02:14:30;;;;;;;2.97;2.67;;;19.60;76.40;;;18.56;74.34;95101.06;4937309;28;20043;-72
2021/07/13 02:16:56;;;;;;;2.75;2.28;;;19.70;76.20;;;18.57;74.22;95108.00;4926882;28;20898;-72
2021/07/13 02:19:21;;;;;;;7.57;2.80;;;19.70;76.30;;;18.58;74.71;95098.94;4982657;28;20444;-72
2021/07/13 02:21:48;;;;;;;5.28;2.53;;;19.70;76.40;;;18.59;74.17;95108.53;4956431;28;20039;-72
2021/07/13 02:24:15;;;;;;;5.10;2.53;;;19.80;76.50;;;18.58;74.32;95101.59;4973984;28;20108;-72
2021/07/13 02:26:44;;;;;;;6.40;2.30;;;19.70;76.50;;;18.59;74.98;95105.06;4977492;28;20053;-73
2021/07/13 02:29:22;;;;;;;3.28;2.65;;;19.70;76.40;;;18.60;75.06;95093.34;4968915;28;20383;-72
2021/07/13 02:31:58;;;;;;;3.17;2.63;;;19.80;76.40;;;18.61;75.95;95086.94;4991234;28;20121;-73
2021/07/13 02:34:27;;;;;;;3.60;2.50;;;19.80;76.20;;;18.60;75.02;95082.69;4958940;28;20122;-73
2021/07/13 02:36:53;;;;;;;2.47;1.98;;;19.80;76.30;;;18.61;74.78;95081.63;4975202;28;20041;-73
2021/07/13 02:39:20;;;;;;;3.08;2.35;;;19.80;76.50;;;18.61;74.46;95086.94;4964775;28;20417;-73
2021/07/13 02:41:47;;;;;;;3.58;2.45;;;19.70;76.60;;;18.60;74.80;95085.34;4969053;28;20133;-72
2021/07/13 02:44:13;;;;;;;3.63;2.28;;;19.80;76.50;;;18.60;75.33;95075.50;4973134;28;20034;-72
2021/07/13 02:46:43;;;;;;;4.50;2.83;;;19.70;76.40;;;18.61;74.83;95071.78;4968419;28;20624;-72
2021/07/13 02:49:11;;;;;;;4.57;2.28;;;19.70;76.40;;;18.61;74.75;95065.66;4954159;28;20126;-72
2021/07/13 02:51:37;;;;;;;5.93;3.03;;;19.80;76.50;;;18.61;75.13;95073.63;4954585;28;20050;-73
2021/07/13 02:54:03;;;;;;;4.97;2.60;;;19.70;76.70;;;18.59;74.37;95073.09;4988436;28;20049;-72
2021/07/13 02:56:28;;;;;;;8.18;2.83;;;19.70;76.90;;;18.57;75.02;95075.22;4968012;28;20415;-72
2021/07/13 02:58:58;;;;;;;4.68;2.50;;;19.80;76.80;;;18.55;75.52;95080.78;4970120;28;20026;-73
2021/07/13 03:01:23;;;;;;;5.68;2.70;;;19.70;77.00;;;18.52;75.92;95080.53;4971172;28;20522;-72
2021/07/13 03:03:49;;;;;;;5.10;2.63;;;19.60;77.10;;;18.50;75.71;95080.00;4986387;28;20030;-72
2021/07/13 03:06:15;;;;;;;6.55;2.55;;;19.60;77.30;;;18.47;75.48;95080.53;4969881;28;20037;-72
2021/07/13 03:08:41;;;;;;;4.30;2.80;;;19.60;77.40;;;18.48;76.17;95069.59;4986157;28;20450;-72
2021/07/13 03:11:07;;;;;;;4.63;2.42;;;19.60;77.40;;;18.46;76.01;95068.28;4968416;28;20042;-72
2021/07/13 03:13:33;;;;;;;5.43;2.78;;;19.50;77.50;;;18.44;76.04;95071.19;4954947;28;20062;-72
2021/07/13 03:15:58;;;;;;;9.88;3.00;;;19.50;77.50;;;18.44;76.18;95067.72;4987281;28;20043;-73
2021/07/13 03:18:24;;;;;;;4.40;2.60;;;19.60;77.60;;;18.42;75.60;95078.66;4963947;28;20038;-73
2021/07/13 03:20:52;;;;;;;3.50;2.60;;;19.50;77.60;;;18.40;76.43;95079.97;4971003;28;20121;-73
2021/07/13 03:23:18;;;;;;;3.97;2.58;;;19.60;77.70;;;18.38;75.74;95071.47;4988500;28;20026;-72
2021/07/13 03:25:44;;;;;;;4.72;2.60;;;19.50;77.70;;;18.35;75.76;95068.25;4967784;28;20038;-74
2021/07/13 03:28:11;;;;;;;4.03;2.30;;;19.50;77.80;;;18.34;75.96;95066.66;4981866;28;20483;-73
2021/07/13 03:30:37;;;;;;;4.25;2.78;;;19.50;78.00;;;18.30;75.90;95065.56;4982600;28;20046;-73
2021/07/13 03:33:03;;;;;;;5.03;2.47;;;19.50;78.00;;;18.27;76.64;95066.09;4970294;28;20042;-72
2021/07/13 03:35:30;;;;;;;4.50;2.63;;;19.50;78.00;;;18.26;76.16;95075.13;4981836;28;20034;-73
2021/07/13 03:37:55;;;;;;;4.22;2.97;;;19.40;78.20;;;18.25;76.64;95073.53;4969895;28;20042;-73
2021/07/13 03:40:22;;;;;;;3.13;2.70;;;19.50;78.00;;;18.24;76.32;95092.44;4977047;28;20065;-73
2021/07/13 03:42:49;;;;;;;3.50;2.60;;;19.40;78.40;;;18.21;76.52;95087.63;4986201;28;20026;-73
2021/07/13 03:45:18;;;;;;;4.90;2.75;;;19.40;78.30;;;18.21;77.05;95092.97;4956411;28;20023;-73
2021/07/13 03:47:54;;;;;;;2.85;2.53;;;19.40;78.40;;;18.18;78.14;95091.63;4985736;28;20109;-74
2021/07/13 03:50:23;;;;;;;3.33;2.45;;;19.30;78.50;;;18.18;76.79;95080.19;4971175;28;20574;-73
2021/07/13 03:52:49;;;;;;;5.38;2.88;;;19.40;78.40;;;18.15;77.08;95078.84;4972050;28;20027;-72
2021/07/13 03:55:14;;;;;;;5.55;3.00;;;19.30;78.50;;;18.16;77.01;95079.66;4960103;28;20449;-65
2021/07/13 03:57:41;;;;;;;4.45;2.85;;;19.40;78.50;;;18.15;77.22;95078.84;4986814;28;20074;-64
2021/07/13 04:00:15;;;;;;;5.30;2.80;;;19.30;78.50;;;18.16;77.66;95083.09;4981147;28;20177;-72
2021/07/13 04:02:41;;;;;;;4.75;2.65;;;19.40;78.60;;;18.15;77.09;95084.16;4988857;28;20093;-73
2021/07/13 04:05:08;;;;;;;3.53;2.80;;;19.30;78.60;;;18.16;76.71;95084.97;4971317;28;20053;-73
2021/07/13 04:07:34;;;;;;;2.88;2.40;;;19.30;78.30;;;18.14;77.45;95098.53;4987203;28;20519;-73
2021/07/13 04:10:00;;;;;;;5.40;2.70;;;19.30;78.40;;;18.16;77.40;95109.72;4984557;28;20124;-71
2021/07/13 04:12:25;;;;;;;4.53;2.65;;;19.30;78.40;;;18.16;77.85;95111.56;4966683;28;20491;-72
2021/07/13 04:14:52;;;;;;;3.42;2.90;;;19.40;78.50;;;18.16;77.39;95112.38;4980045;28;20038;-72
2021/07/13 04:17:17;;;;;;;3.88;3.22;;;19.30;78.70;;;18.15;77.74;95116.09;4955630;28;20498;-71
2021/07/13 04:19:43;;;;;;;4.88;3.10;;;19.40;78.60;;;18.14;77.10;95105.72;4976512;28;20154;-71
2021/07/13 04:22:09;;;;;;;6.00;3.00;;;19.40;78.50;;;18.13;77.55;95112.91;4976445;28;20058;-72
2021/07/13 04:24:34;;;;;;;5.07;3.30;;;19.40;78.80;;;18.13;77.98;95112.91;4974131;28;20047;-71
2021/07/13 04:27:00;;;;;;;6.18;4.10;;;19.50;78.60;;;18.14;78.10;95114.50;4984332;28;20114;-73
2021/07/13 04:29:26;;;;;;;5.53;3.28;;;19.50;78.50;;;18.16;77.29;95109.72;4975548;28;20105;-73
2021/07/13 04:31:52;;;;;;;6.05;3.00;;;19.50;78.50;;;18.19;77.97;95111.84;5007223;28;20058;-71
2021/07/13 04:34:17;;;;;;;4.32;2.80;;;19.50;78.60;;;18.21;77.61;95095.63;4960205;28;20039;-72
2021/07/13 04:36:43;;;;;;;4.05;2.92;;;19.60;78.30;;;18.26;77.60;95096.44;4988963;28;20225;-73
2021/07/13 04:39:09;;;;;;;8.20;3.30;;;19.60;78.30;;;18.30;77.32;95089.53;4963203;28;20062;-73
2021/07/13 04:41:35;;;;;;;3.50;2.85;;;19.60;78.20;;;18.35;77.74;95086.91;4976733;28;20060;-72
2021/07/13 04:44:01;;;;;;;7.38;2.85;;;19.70;78.00;;;18.41;77.46;95086.91;4970700;28;20362;-73
2021/07/13 04:46:27;;;;;;;4.03;3.15;;;19.80;77.80;;;18.46;77.92;95090.38;4983169;28;20030;-73
2021/07/13 04:48:54;;;;;;;3.03;2.72;;;19.90;77.50;;;18.51;77.09;95086.91;4971843;28;20498;-72
2021/07/13 04:51:21;;;;;;;5.32;3.00;;;20.00;77.30;;;18.58;77.63;95087.47;4982256;28;20061;-72
2021/07/13 04:53:47;;;;;;;5.00;2.85;;;20.10;77.10;;;18.63;77.96;95090.97;4970824;28;20034;-72
2021/07/13 04:56:12;;;;;;;5.60;2.90;;;20.10;76.90;;;18.72;77.60;95079.78;4977127;28;20446;-72
2021/07/13 04:58:38;;;;;;;6.15;3.17;;;20.30;76.80;;;18.77;77.54;95075.25;4986927;28;20663;-72
2021/07/13 05:01:04;;;;;;;6.72;2.95;;;20.30;76.50;;;18.83;76.67;95066.22;4979748;28;20062;-73
2021/07/13 05:03:29;;;;;;;6.22;2.63;;;20.40;76.50;;;18.90;76.49;95064.09;4970931;28;20109;-69
2021/07/13 05:05:55;;;;;;;6.05;3.38;;;20.40;76.50;;;18.93;77.81;95068.09;4974038;28;20034;-67
2021/07/13 05:08:24;;;;;;;5.65;3.50;;;20.20;76.70;;;18.96;77.45;95067.56;5003683;28;20040;-70
2021/07/13 05:10:50;;;;;;;5.05;3.13;;;20.30;76.90;;;19.02;76.41;95071.84;4989030;28;20125;-71
2021/07/13 05:13:15;;;;;;;4.50;2.97;;;20.40;76.60;;;19.08;77.47;95069.97;4985879;28;20129;-67
2021/07/13 05:15:41;;;;;;;5.97;3.22;;;20.50;76.80;;;19.13;77.42;95083.28;4986551;28;20494;-66
2021/07/13 05:18:08;;;;;;;4.30;2.67;;;20.60;76.60;;;19.18;76.53;95085.94;4976066;28;20035;-66
2021/07/13 05:20:34;;;;;;;4.13;2.88;;;20.60;76.40;;;19.21;76.39;95066.75;4988304;28;20070;-67
2021/07/13 05:23:06;;;;;;;5.38;2.90;;;20.60;76.30;;;19.23;76.34;95068.06;4985197;28;20185;-74
2021/07/13 05:25:33;;;;;;;5.00;2.90;;;20.60;76.20;;;19.29;76.08;95071.56;4968550;28;20031;-71
2021/07/13 05:27:59;;;;;;;3.47;2.70;;;20.70;76.10;;;19.33;76.84;95056.59;4964889;28;20084;-67
2021/07/13 05:30:25;;;;;;;4.60;2.70;;;20.70;75.60;;;19.34;75.71;95050.22;4983173;28;20509;-69
2021/07/13 05:32:52;;;;;;;4.20;2.65;;;20.70;75.80;;;19.39;75.37;95054.72;4978128;28;20042;-69
2021/07/13 05:35:17;;;;;;;6.72;2.78;;;20.70;75.90;;;19.40;76.12;95057.13;4980184;28;20038;-69
2021/07/13 05:37:43;;;;;;;4.32;2.90;;;20.90;75.70;;;19.44;75.42;95046.72;4987372;28;20236;-78
2021/07/13 05:40:09;;;;;;;3.58;2.45;;;20.80;75.10;;;19.47;76.03;95052.31;4970962;28;20050;-77
2021/07/13 05:42:35;;;;;;;5.38;2.40;;;20.90;74.50;;;19.50;76.08;95056.31;4970080;28;20022;-79
2021/07/13 05:45:03;;;;;;;3.70;2.70;;;21.00;74.60;;;19.54;76.28;95047.53;4952718;28;20075;-76
2021/07/13 05:47:29;;;;;;;2.92;2.63;;;20.90;74.70;;;19.56;74.78;95044.59;4969219;28;20054;-77
2021/07/13 05:49:55;;;;;;;5.82;2.75;;;21.00;74.60;;;19.61;75.89;95049.13;4941929;28;20039;-77
2021/07/13 05:52:20;;;;;;;5.13;2.90;;;21.00;74.10;;;19.62;75.50;95058.72;4965602;28;20051;-77
2021/07/13 05:54:46;;;;;;;3.20;2.40;;;21.10;74.10;;;19.67;75.41;95051.50;4946240;28;20079;-73
2021/07/13 05:57:12;;;;;;;3.28;2.53;;;21.20;74.10;;;19.73;75.33;95046.97;4959225;28;20053;-72
2021/07/13 05:59:38;;;;;;;6.65;3.15;;;21.20;74.50;;;19.76;75.41;95049.06;4965918;28;20031;-73
2021/07/13 06:02:03;;;;;;;3.67;3.13;;;21.30;73.80;;;19.79;75.59;95053.88;4945272;28;20065;-74
2021/07/13 06:04:29;;;;;;;3.83;2.80;;;21.40;73.60;;;19.83;74.48;95050.38;4936478;28;20066;-74
2021/07/13 06:06:55;;;;;;;5.22;2.70;;;21.40;73.80;;;19.86;74.44;95049.81;4961316;28;20038;-75
2021/07/13 06:09:21;;;;;;;3.63;2.50;;;21.50;72.90;;;19.90;74.37;95050.06;4968596;28;20050;-76
2021/07/13 06:11:46;;;;;;;3.35;2.28;;;21.40;73.10;;;19.94;74.46;95051.16;4951775;28;20470;-71
2021/07/13 06:14:12;;;;;;;5.10;2.55;;;21.50;73.20;;;19.99;74.01;95061.81;4961192;28;20112;-73
2021/07/13 06:16:38;;;;;;;7.35;2.97;;;21.60;72.80;;;20.03;74.74;95070.84;4966554;28;20031;-74
2021/07/13 06:19:04;;;;;;;4.55;2.67;;;21.60;72.50;;;20.07;73.89;95069.22;4972175;28;20030;-73
2021/07/13 06:21:29;;;;;;;2.70;2.40;;;21.60;72.60;;;20.12;74.50;95074.53;4989168;28;20108;-74
2021/07/13 06:23:58;;;;;;;4.03;2.78;;;21.60;73.10;;;20.19;74.43;95074.28;4966464;28;20043;-73
2021/07/13 06:26:24;;;;;;;4.38;2.80;;;21.70;72.70;;;20.25;74.04;95072.38;4968153;28;20658;-76
2021/07/13 06:28:50;;;;;;;2.65;2.40;;;21.60;72.50;;;20.29;73.10;95070.75;4952985;28;20027;-77
2021/07/13 06:31:15;;;;;;;5.65;2.53;;;21.80;72.10;;;20.32;73.38;95068.31;4973800;28;20120;-76
2021/07/13 06:33:41;;;;;;;4.45;2.70;;;21.80;72.10;;;20.34;73.31;95060.81;4971463;28;20383;-77
2021/07/13 06:36:08;;;;;;;4.75;2.50;;;21.70;72.20;;;20.36;73.97;95048.00;4982364;28;20078;-73
2021/07/13 06:38:34;;;;;;;6.10;2.70;;;21.80;72.30;;;20.39;72.93;95041.31;4986992;28;20035;-74
2021/07/13 06:40:59;;;;;;;4.65;2.50;;;21.90;72.10;;;20.45;73.33;95046.38;4987477;28;20720;-77
2021/07/13 06:43:25;;;;;;;3.05;2.70;;;22.00;71.90;;;20.51;72.42;95049.00;4988496;28;20505;-77
2021/07/13 06:45:51;;;;;;;2.63;2.40;;;22.10;71.40;;;20.55;73.88;95047.38;4988253;28;20034;-73
2021/07/13 06:48:17;;;;;;;4.07;2.78;;;22.10;71.50;;;20.59;72.51;95056.44;4972456;28;20461;-74
2021/07/13 06:50:42;;;;;;;2.70;2.45;;;22.10;71.10;;;20.64;73.01;95059.91;4971303;28;20042;-72
2021/07/13 06:53:08;;;;;;;2.40;2.20;;;22.20;70.40;;;20.68;73.02;95068.94;4984337;28;20081;-77
2021/07/13 06:55:34;;;;;;;3.58;2.70;;;22.20;70.90;;;20.71;72.45;95071.06;4989679;28;20046;-79
2021/07/13 06:57:59;;;;;;;4.82;2.65;;;22.10;70.80;;;20.71;72.42;95060.38;4990936;28;20031;-78
2021/07/13 07:00:25;;;;;;;4.50;2.83;;;22.20;71.20;;;20.77;72.53;95074.50;4986374;28;20031;-78
2021/07/13 07:02:51;;;;;;;2.88;2.58;;;22.30;71.00;;;20.80;72.40;95077.41;4965432;28;20526;-71
2021/07/13 07:05:17;;;;;;;5.45;2.70;;;22.40;70.30;;;20.85;71.79;95062.44;4962123;28;20056;-65
2021/07/13 07:07:47;;;;;;;3.95;2.60;;;22.40;70.30;;;20.87;71.75;95070.97;4950882;28;20051;-66
2021/07/13 07:10:13;;;;;;;3.03;2.40;;;22.50;70.00;;;20.87;71.72;95073.63;4951737;28;20090;-69
2021/07/13 07:12:39;;;;;;;4.60;2.75;;;22.30;69.70;;;20.88;71.73;95068.00;4963559;28;20050;-67
2021/07/13 07:15:05;;;;;;;3.80;2.30;;;22.40;69.30;;;20.91;70.91;95080.81;4972648;28;20376;-68
2021/07/13 07:17:31;;;;;;;4.78;3.00;;;22.50;69.70;;;20.94;70.93;95069.56;4972414;28;20082;-70
2021/07/13 07:20:00;;;;;;;4.55;2.47;;;22.50;69.90;;;20.97;71.70;95084.25;4973862;28;20053;-65
2021/07/13 07:22:27;;;;;;;5.43;3.00;;;22.60;70.10;;;20.90;71.25;95095.25;4973474;28;20070;-69
2021/07/13 07:24:52;;;;;;;6.53;2.50;;;22.10;70.10;;;20.90;71.07;95095.25;4951832;28;20038;-72
2021/07/13 07:27:18;;;;;;;5.80;3.20;;;22.30;70.20;;;20.93;70.69;95104.59;4969520;28;20374;-71
2021/07/13 07:29:44;;;;;;;3.78;2.83;;;22.40;69.60;;;20.93;71.26;95100.03;4971230;28;20038;-72
2021/07/13 07:32:10;;;;;;;5.28;2.85;;;22.50;69.10;;;21.01;70.60;95096.78;4973543;28;20038;-75
2021/07/13 07:34:35;;;;;;;4.13;2.92;;;22.70;68.40;;;21.06;71.00;95094.09;4971244;28;20035;-73
2021/07/13 07:37:01;;;;;;;7.25;3.08;;;22.70;68.70;;;21.16;70.60;95071.78;4978141;28;20038;-73
2021/07/13 07:39:27;;;;;;;3.10;2.40;;;23.10;68.60;;;21.33;71.19;95077.56;4972460;28;20507;-74
2021/07/13 07:41:52;;;;;;;3.72;3.13;;;23.50;67.80;;;;;;4988984;28;20096;-74
2021/07/13 07:44:19;;;;;;;6.80;3.13;;;23.90;65.90;;;21.81;70.13;95071.47;4977333;28;20523;-73
2021/07/13 07:46:45;;;;;;;6.25;3.05;;;24.30;63.80;;;22.02;70.01;95073.66;4963421;28;20027;-76
2021/07/13 07:49:10;;;;;;;6.63;2.90;;;24.50;63.20;;;22.29;69.45;95072.28;4991648;28;20376;-74
2021/07/13 07:51:36;;;;;;;3.65;2.65;;;24.90;61.60;;;22.53;69.05;95067.66;4991096;28;20065;-72
2021/07/13 07:54:02;;;;;;;3.40;2.55;;;25.10;61.50;;;22.80;68.88;95076.94;4991328;28;20034;-73
2021/07/13 07:56:28;;;;;;;4.85;3.13;;;25.40;60.70;;;23.06;67.98;95080.84;4959183;28;20042;-72
2021/07/13 07:58:53;;;;;;;3.67;2.63;;;25.60;59.90;;;23.32;67.47;95070.53;4974465;28;20114;-72
2021/07/13 08:01:19;;;;;;;5.28;3.10;;;26.10;58.70;;;23.56;66.74;95081.16;4956735;28;20125;-67
2021/07/13 08:03:45;;;;;;;4.93;2.70;;;26.20;57.70;;;23.80;65.80;95084.47;4984693;28;20441;-76
2021/07/13 08:06:11;;;;;;;9.23;2.35;;;26.30;57.20;;;24.01;64.70;95092.13;4989118;28;20093;-72
2021/07/13 08:08:36;;;;;;;4.30;2.95;;;26.50;56.30;;;24.22;63.98;95096.03;4991030;28;20132;-71
2021/07/13 08:11:03;;;;;;;3.70;3.05;;;26.70;54.50;;;24.38;63.50;95086.56;4982809;28;20046;-78
2021/07/13 08:13:28;;;;;;;3.42;3.03;;;26.80;55.10;;;24.61;62.94;95105.44;4972250;28;20490;-73
2021/07/13 08:15:57;;;;;;;4.63;2.58;;;27.00;53.90;;;24.74;62.01;95104.63;4984409;28;20038;-73
2021/07/13 08:18:23;;;;;;;5.75;2.72;;;26.80;54.40;;;24.84;61.89;95106.28;4987325;28;20092;-68
2021/07/13 08:20:49;;;;;;;6.63;2.55;;;26.80;54.70;;;24.99;61.50;95104.09;4971394;28;20031;-73
2021/07/13 08:23:15;;;;;;;7.95;3.08;;;27.40;52.60;;;25.20;60.82;95098.25;4966987;28;20030;-69
2021/07/13 08:25:41;;;;;;;6.65;3.00;;;27.50;52.50;;;25.32;60.00;95098.47;4975711;28;20088;-68
2021/07/13 08:28:06;;;;;;;4.95;2.85;;;27.60;52.70;;;25.44;59.61;95100.63;4969946;28;20125;-70
2021/07/13 08:30:32;;;;;;;5.60;3.28;;;27.30;53.20;;;25.48;59.37;95088.13;4971088;28;20039;-70
2021/07/13 08:32:58;;;;;;;3.45;2.78;;;27.40;52.50;;;25.49;58.96;95100.50;4967059;28;20031;-74
2021/07/13 08:35:24;;;;;;;4.75;3.05;;;27.10;53.10;;;25.44;59.03;95098.72;4987355;28;20057;-72
2021/07/13 08:37:51;;;;;;;3.30;2.50;;;27.10;53.60;;;25.42;58.48;95111.69;4981707;28;20112;-70
2021/07/13 08:40:17;;;;;;;6.70;2.53;;;26.90;53.30;;;25.40;58.17;95113.91;4976368;28;20066;-71
2021/07/13 08:42:43;;;;;;;4.47;3.10;;;27.00;53.20;;;25.31;57.95;95110.34;4957574;28;20126;-71
2021/07/13 08:45:16;;;;;;;4.72;2.80;;;26.70;53.70;;;25.35;57.01;95116.72;4936594;29;20094;-73
2021/07/13 08:47:44;;;;;;;3.72;2.75;;;27.30;53.10;;;25.45;57.31;95108.38;4945734;28;20418;-67
2021/07/13 08:50:10;;;;;;;3.60;2.78;;;27.50;51.60;;;25.68;57.17;95113.78;4981437;28;20450;-70
2021/07/13 08:52:36;;;;;;;3.10;2.42;;;28.00;52.10;;;25.80;57.24;95108.59;4971803;28;20445;-70
2021/07/13 08:55:03;;;;;;;7.57;2.40;;;27.80;51.00;;;25.94;56.77;95114.72;4953061;28;20078;-72
2021/07/13 08:57:29;;;;;;;5.78;2.95;;;28.10;50.80;;;26.07;56.45;95124.59;4962858;28;20039;-71
2021/07/13 08:59:55;;;;;;;5.25;3.42;;;27.90;50.10;;;26.15;55.46;95123.84;4971043;28;20589;-71
2021/07/13 09:02:20;;;;;;;6.22;3.00;;;27.80;50.00;;;26.09;55.70;95119.69;4950064;28;20049;-66
2021/07/13 09:04:46;;;;;;;3.70;2.78;;;27.60;52.10;;;26.04;55.93;95122.53;4975027;28;20030;-75
2021/07/13 09:07:14;;;;;;;8.90;3.75;;;27.50;52.70;;;25.93;55.95;95132.78;4975033;28;20122;-75
2021/07/13 09:09:40;;;;;;;5.90;2.90;;;27.10;53.20;;;25.82;55.81;95142.25;4974370;28;20134;-72
2021/07/13 09:12:18;;;;;;;5.47;2.92;;;27.40;52.30;;;25.94;55.00;95130.88;4970944;28;20049;-71
2021/07/13 09:15:01;;;;;;;5.97;2.72;;;27.90;51.30;;;26.06;55.46;95141.88;4986966;28;20130;-71
2021/07/13 09:17:43;;;;;;;3.75;3.13;;;28.10;51.50;;;26.16;55.20;95136.22;4985564;28;20121;-71
2021/07/13 09:20:26;;;;;;;4.10;3.00;;;28.30;51.10;;;26.23;55.00;95144.63;4988493;28;20125;-75
2021/07/13 09:23:04;;;;;;;5.03;3.00;;;28.10;51.10;;;26.29;55.27;95149.91;4984261;28;20089;-71
2021/07/13 09:25:44;;;;;;;4.55;3.60;;;28.20;51.70;;;26.28;55.03;95151.00;4977007;28;20062;-73
2021/07/13 09:28:28;;;;;;;4.57;2.90;;;28.40;51.00;;;26.52;54.35;95143.34;4961411;28;20118;-72
2021/07/13 09:30:56;;;;;;;6.28;3.35;;;29.10;48.70;;;26.60;55.06;95147.97;4975333;28;20030;-73
2021/07/13 09:33:23;;;;;;;4.00;3.15;;;28.60;49.40;;;26.55;55.11;95154.31;4971740;28;20033;-69
2021/07/13 09:36:16;;;;;;;3.47;2.67;;;28.10;50.80;;;26.43;54.09;95161.38;4988489;28;21007;-69
2021/07/13 09:38:53;;;;;;;6.13;3.22;;;27.90;51.40;;;26.44;54.27;95162.97;4986066;28;20069;-70
2021/07/13 09:41:24;;;;;;;5.80;3.10;;;28.10;51.00;;;26.52;54.64;95154.13;4954465;28;20027;-73
2021/07/13 09:44:04;;;;;;;3.70;2.35;;;28.20;51.30;;;26.45;54.23;95156.47;4952923;28;20042;-70
2021/07/13 09:46:42;;;;;;;5.78;2.90;;;27.90;51.60;;;26.33;54.25;95164.34;4968532;28;20027;-74
2021/07/13 09:49:21;;;;;;;7.53;2.67;;;27.80;51.60;;;26.23;55.00;95155.41;4940498;28;20035;-70
2021/07/13 09:52:01;;;;;;;3.30;2.53;;;27.50;52.80;;;26.28;54.68;95141.03;4977423;28;20094;-71
2021/07/13 09:54:41;;;;;;;3.80;2.55;;;28.20;52.00;;;26.46;53.76;95147.28;4954234;28;20027;-75
2021/07/13 09:57:26;;;;;;;6.15;2.78;;;28.50;50.00;;;26.58;53.36;95136.69;4967500;28;20027;-75
2021/07/13 09:59:55;;;;;;;4.57;2.38;;;28.60;48.80;;;26.71;53.51;95148.47;4965069;28;20441;-75
2021/07/13 10:02:23;;;;;;;4.18;2.78;;;28.70;48.50;;;26.88;53.99;95147.69;4967158;28;20090;-70
2021/07/13 10:04:50;;;;;;;4.28;2.80;;;29.00;48.20;;;26.95;53.28;95143.44;4969412;28;20059;-69
2021/07/13 10:07:17;;;;;;;3.72;2.78;;;28.70;47.70;;;27.20;52.64;95135.72;4965723;28;20148;-69
2021/07/13 10:09:48;;;;;;;5.28;2.90;;;29.50;46.50;;;27.53;50.61;95138.69;4966696;28;20050;-69
2021/07/13 10:12:16;;;;;;;3.88;3.00;;;30.00;45.30;;;27.88;51.50;95148.38;4966663;28;20042;-65
2021/07/13 10:14:49;;;;;;;3.85;3.03;;;30.40;44.60;;;28.23;49.84;95140.94;4968111;28;20034;-66
2021/07/13 10:17:16;;;;;;;5.50;2.75;;;30.60;44.60;;;28.55;51.23;95147.66;4969360;28;20055;-66
2021/07/13 10:20:05;;;;;;;3.63;3.10;;;31.00;44.20;;;28.62;48.80;95155.28;4967985;28;20043;-68
2021/07/13 10:22:31;;;;;;;3.35;1.52;;;30.40;44.90;;;28.26;50.09;95193.59;4960547;28;20043;-64
2021/07/13 10:24:59;;;;;;;3.97;1.20;;;28.80;46.30;;;27.54;50.04;95199.72;4964090;28;20118;-65